Time;durP1;ratioP1;P1;durP2;ratioP2;P2;SDS_P1;SDS_P2;PMS_P1;PMS_P2;Temp;Humidity;BMP_temperature;BMP_pressure;BME280_temperature;BME280_humidity;BME280_pressure;Samples;Min_cycle;Max_cycle;Signal;HPM_P1;HPM_P2
2021/05/01 00:01:43;;;;;;;34.37;28.83;;;6.80;99.90;;;;;;5071909;28;20199;-76
2021/05/01 00:04:10;;;;;;;32.47;28.90;;;6.80;99.90;;;;;;5054611;28;20195;-75
2021/05/01 00:06:37;;;;;;;33.20;29.70;;;6.70;99.90;;;;;;5072537;28;20191;-76
2021/05/01 00:09:04;;;;;;;33.20;29.40;;;6.60;99.90;;;;;;5054204;28;20660;-76
2021/05/01 00:11:30;;;;;;;34.50;29.93;;;6.60;99.90;;;;;;5054235;28;20214;-75
2021/05/01 00:13:58;;;;;;;37.03;31.97;;;6.60;99.90;;;;;;5046933;28;20203;-76
2021/05/01 00:16:25;;;;;;;37.97;32.33;;;6.60;99.90;;;;;;5072654;28;20190;-76
2021/05/01 00:18:53;;;;;;;36.77;29.90;;;6.70;99.90;;;;;;5072522;28;20206;-76
2021/05/01 00:21:20;;;;;;;35.13;29.57;;;6.70;99.90;;;;;;5054936;28;20727;-76
2021/05/01 00:23:47;;;;;;;39.07;31.40;;;6.70;99.90;;;;;;5072791;28;20203;-75
2021/05/01 00:26:13;;;;;;;30.60;27.30;;;6.80;99.90;;;;;;5054518;28;20191;-76
2021/05/01 00:28:40;;;;;;;33.07;28.63;;;6.80;99.90;;;;;;5054409;28;20252;-75
2021/05/01 00:31:07;;;;;;;31.50;26.07;;;6.80;99.90;;;;;;5072365;28;20214;-75
2021/05/01 00:33:33;;;;;;;30.67;26.87;;;6.80;99.90;;;;;;5054865;28;20627;-76
2021/05/01 00:35:59;;;;;;;32.10;28.33;;;6.70;99.90;;;;;;5072245;28;20203;-76
2021/05/01 00:38:27;;;;;;;32.13;27.47;;;6.60;99.90;;;;;;5071160;28;20202;-76
2021/05/01 00:40:53;;;;;;;35.07;29.77;;;6.70;99.90;;;;;;5058568;28;20225;-76
2021/05/01 00:43:20;;;;;;;32.63;28.30;;;6.60;99.90;;;;;;5058077;28;20206;-76
2021/05/01 00:45:46;;;;;;;33.87;28.27;;;6.60;99.90;;;;;;5058318;28;20196;-76
2021/05/01 00:48:12;;;;;;;33.80;28.27;;;6.60;99.90;;;;;;5058158;28;20191;-76
2021/05/01 00:50:39;;;;;;;27.70;24.80;;;6.60;99.90;;;;;;5075640;28;20214;-76
2021/05/01 00:53:06;;;;;;;30.80;27.50;;;6.50;99.90;;;;;;5057664;28;20655;-76
2021/05/01 00:55:33;;;;;;;33.37;28.97;;;6.50;99.90;;;;;;5058526;28;20199;-76
2021/05/01 00:57:59;;;;;;;35.00;29.87;;;6.50;99.90;;;;;;5058494;28;20205;-76
2021/05/01 01:00:53;;;;;;;31.27;27.97;;;6.40;99.90;;;;;;5076750;28;20234;-76
2021/05/01 01:03:19;;;;;;;32.57;27.23;;;6.40;99.90;;;;;;5056817;28;20284;-76
2021/05/01 01:05:46;;;;;;;38.93;29.60;;;6.50;99.90;;;;;;5058422;28;20206;-76
2021/05/01 01:08:12;;;;;;;30.73;26.90;;;6.50;99.90;;;;;;5058284;28;20595;-76
2021/05/01 01:10:40;;;;;;;33.57;28.70;;;6.50;99.90;;;;;;5057897;28;20680;-76
2021/05/01 01:13:06;;;;;;;38.77;31.93;;;6.50;99.90;;;;;;5050225;28;20615;-76
2021/05/01 01:15:33;;;;;;;35.57;30.63;;;6.60;99.90;;;;;;5058352;28;20203;-76
2021/05/01 01:18:00;;;;;;;36.57;29.37;;;6.60;99.90;;;;;;5076328;28;20209;-76
2021/05/01 01:20:27;;;;;;;33.47;28.23;;;6.60;99.90;;;;;;5076433;28;20219;-76
2021/05/01 01:22:55;;;;;;;36.60;30.40;;;6.70;99.90;;;;;;5076173;28;20191;-76
2021/05/01 01:25:21;;;;;;;32.17;28.33;;;6.70;99.90;;;;;;5058551;28;20186;-76
2021/05/01 01:27:48;;;;;;;32.23;28.10;;;6.70;99.90;;;;;;5075884;28;20230;-76
2021/05/01 01:30:17;;;;;;;34.63;29.20;;;6.70;99.90;;;;;;5051397;28;20230;-76
2021/05/01 01:32:43;;;;;;;29.40;26.23;;;6.70;99.90;;;;;;5058537;28;20226;-76
2021/05/01 01:35:12;;;;;;;31.37;26.93;;;6.70;99.90;;;;;;5058730;28;20191;-76
2021/05/01 01:37:40;;;;;;;31.23;26.37;;;6.80;99.90;;;;;;5058126;28;20206;-76
2021/05/01 01:40:10;;;;;;;38.13;30.67;;;6.80;99.90;;;;;;5068255;28;20215;-76
2021/05/01 01:42:36;;;;;;;34.37;29.83;;;6.80;99.90;;;;;;5057484;28;20207;-76
2021/05/01 01:45:04;;;;;;;33.80;29.37;;;6.80;99.90;;;;;;5058086;28;20199;-76
2021/05/01 01:47:30;;;;;;;29.67;26.50;;;6.80;99.90;;;;;;5075855;28;20191;-76
2021/05/01 01:49:58;;;;;;;31.67;27.27;;;6.80;99.90;;;;;;5057461;28;20246;-76
2021/05/01 01:52:24;;;;;;;34.47;30.03;;;6.80;99.90;;;;;;5057076;28;20306;-76
2021/05/01 01:54:51;;;;;;;33.07;28.17;;;6.90;99.90;;;;;;5076102;28;20206;-76
2021/05/01 01:57:18;;;;;;;35.33;31.03;;;6.90;99.90;;;;;;5075761;28;20191;-77
2021/05/01 01:59:44;;;;;;;34.73;30.20;;;6.90;99.90;;;;;;5075350;28;20231;-75
2021/05/01 02:02:11;;;;;;;30.00;25.83;;;6.90;99.90;;;;;;5075256;28;20191;-76
2021/05/01 02:04:37;;;;;;;30.93;26.63;;;6.90;99.90;;;;;;5075106;28;20218;-76
2021/05/01 02:07:04;;;;;;;36.67;31.37;;;6.90;99.90;;;;;;5057510;28;20194;-76
2021/05/01 02:09:30;;;;;;;36.77;31.73;;;6.90;99.90;;;;;;5057488;28;20210;-76
2021/05/01 02:11:57;;;;;;;33.83;28.93;;;6.90;99.90;;;;;;5052006;28;20208;-76
2021/05/01 02:14:24;;;;;;;34.77;30.63;;;6.90;99.90;;;;;;5075244;28;20199;-76
2021/05/01 02:16:50;;;;;;;34.47;30.77;;;7.00;99.90;;;;;;5056773;28;20194;-76
2021/05/01 02:19:17;;;;;;;31.60;27.50;;;7.00;99.90;;;;;;5075013;28;20203;-76
2021/05/01 02:21:43;;;;;;;37.63;30.23;;;7.00;99.90;;;;;;5056855;28;20196;-76
2021/05/01 02:24:10;;;;;;;28.90;25.80;;;6.90;99.90;;;;;;5074882;28;20193;-76
2021/05/01 02:26:36;;;;;;;31.23;27.87;;;6.90;99.90;;;;;;5074781;28;20192;-76
2021/05/01 02:29:03;;;;;;;42.80;35.17;;;6.90;99.90;;;;;;5075042;28;20202;-76
2021/05/01 02:31:30;;;;;;;33.30;28.87;;;6.90;99.90;;;;;;5056901;28;20598;-76
2021/05/01 02:33:56;;;;;;;32.70;27.83;;;7.00;99.90;;;;;;5075461;28;20199;-76
2021/05/01 02:36:22;;;;;;;36.90;31.13;;;7.10;99.90;;;;;;5057422;28;20207;-76
2021/05/01 02:38:50;;;;;;;35.90;31.50;;;7.00;99.90;;;;;;5074549;28;20195;-76
2021/05/01 02:41:16;;;;;;;36.20;31.20;;;7.00;99.90;;;;;;5073516;28;20234;-76
2021/05/01 02:43:43;;;;;;;34.90;30.40;;;7.10;99.90;;;;;;5056129;28;20203;-80
2021/05/01 02:46:09;;;;;;;33.73;29.77;;;7.10;99.90;;;;;;5054170;28;20195;-75
2021/05/01 02:48:36;;;;;;;38.60;30.40;;;7.00;99.90;;;;;;5071973;28;20200;-76
2021/05/01 02:51:03;;;;;;;38.37;29.97;;;7.10;99.90;;;;;;5052266;28;20211;-75
2021/05/01 02:53:29;;;;;;;33.87;29.27;;;7.10;99.90;;;;;;5054020;28;20573;-75
2021/05/01 02:55:55;;;;;;;35.30;30.60;;;7.10;99.90;;;;;;5073018;28;20198;-75
2021/05/01 02:58:22;;;;;;;32.63;28.07;;;7.10;99.90;;;;;;5058776;28;20625;-75
2021/05/01 03:00:48;;;;;;;32.87;28.50;;;7.10;99.90;;;;;;5103971;22;20291;-77
2021/05/01 03:03:14;;;;;;;31.90;28.33;;;7.00;99.90;;;;;;5088292;28;20203;-75
2021/05/01 03:05:41;;;;;;;31.37;27.00;;;7.10;99.90;;;;;;5086359;28;20199;-78
2021/05/01 03:08:08;;;;;;;28.30;25.33;;;7.00;99.90;;;;;;5090567;28;20611;-75
2021/05/01 03:10:34;;;;;;;28.63;25.57;;;7.00;99.90;;;;;;5087219;28;20246;-76
2021/05/01 03:13:01;;;;;;;30.20;26.83;;;7.00;99.90;;;;;;5080928;28;20210;-77
2021/05/01 03:15:27;;;;;;;29.47;26.37;;;7.00;99.90;;;;;;5089121;28;20196;-77
2021/05/01 03:17:56;;;;;;;30.17;26.97;;;7.00;99.90;;;;;;5090085;28;20663;-77
2021/05/01 03:20:23;;;;;;;31.17;26.83;;;7.00;99.90;;;;;;5087147;28;20214;-77
2021/05/01 03:22:50;;;;;;;26.73;24.03;;;6.90;99.90;;;;;;5074679;28;20273;-76
2021/05/01 03:25:18;;;;;;;34.30;28.67;;;6.80;99.90;;;;;;5079075;28;20203;-77
2021/05/01 03:27:45;;;;;;;35.87;30.13;;;6.80;99.90;;;;;;5089889;28;20203;-77
2021/05/01 03:30:13;;;;;;;35.93;30.43;;;6.80;99.90;;;;;;5090908;28;20237;-76
2021/05/01 03:32:41;;;;;;;32.87;29.27;;;6.80;99.90;;;;;;5090581;28;20195;-76
2021/05/01 03:35:09;;;;;;;39.97;30.37;;;6.90;99.90;;;;;;5085749;28;20249;-76
2021/05/01 03:37:36;;;;;;;35.90;30.57;;;6.90;99.90;;;;;;5086228;28;20295;-76
2021/05/01 03:40:04;;;;;;;33.00;29.50;;;6.80;99.90;;;;;;5075061;28;20265;-76
2021/05/01 03:42:30;;;;;;;31.57;28.27;;;6.80;99.90;;;;;;5072379;28;20190;-76
2021/05/01 03:44:56;;;;;;;38.00;31.87;;;6.80;99.90;;;;;;5079597;28;20727;-76
2021/05/01 03:47:23;;;;;;;38.70;32.87;;;6.80;99.90;;;;;;5077447;28;20244;-77
2021/05/01 03:49:49;;;;;;;37.20;30.83;;;6.80;99.90;;;;;;5075183;28;20195;-77
2021/05/01 03:52:16;;;;;;;33.23;28.87;;;6.80;99.90;;;;;;5072939;28;20265;-76
2021/05/01 03:54:42;;;;;;;35.60;29.87;;;6.80;99.90;;;;;;5076114;28;20205;-76
2021/05/01 03:57:09;;;;;;;36.07;29.93;;;6.80;99.90;;;;;;5076705;28;20203;-76
2021/05/01 03:59:35;;;;;;;33.70;28.87;;;6.90;99.90;;;;;;5103393;28;20191;-76
2021/05/01 04:02:02;;;;;;;39.30;31.53;;;6.90;99.90;;;;;;5079320;28;20207;-76
2021/05/01 04:04:28;;;;;;;41.57;33.53;;;6.80;99.90;;;;;;5081106;28;20195;-76
2021/05/01 04:06:55;;;;;;;38.47;31.33;;;6.80;99.90;;;;;;5079329;28;20716;-76
2021/05/01 04:09:21;;;;;;;38.73;31.67;;;6.90;99.90;;;;;;5081892;28;20200;-76
2021/05/01 04:11:47;;;;;;;33.83;30.17;;;6.90;99.90;;;;;;5085215;28;20757;-76
2021/05/01 04:14:14;;;;;;;37.93;31.17;;;6.90;99.90;;;;;;5086298;28;20204;-76
2021/05/01 04:16:41;;;;;;;36.13;30.57;;;6.90;99.90;;;;;;5087269;28;20201;-76
2021/05/01 04:19:07;;;;;;;38.20;32.47;;;6.90;99.90;;;;;;5086014;28;20198;-76
2021/05/01 04:21:33;;;;;;;35.47;30.17;;;6.80;99.90;;;;;;5090925;28;20267;-76
2021/05/01 04:24:00;;;;;;;35.83;32.03;;;6.90;99.90;;;;;;5087614;28;20188;-76
2021/05/01 04:26:26;;;;;;;40.70;33.30;;;6.80;99.90;;;;;;5081079;28;20187;-76
2021/05/01 04:28:53;;;;;;;35.10;31.03;;;6.90;99.90;;;;;;5087670;28;20198;-76
2021/05/01 04:31:20;;;;;;;32.33;28.60;;;6.90;99.90;;;;;;5083109;28;20211;-76
2021/05/01 04:33:47;;;;;;;41.73;33.20;;;6.90;99.90;;;;;;5087742;28;20201;-74
2021/05/01 04:36:13;;;;;;;34.73;30.90;;;7.00;99.90;;;;;;5083181;28;20191;-77
2021/05/01 04:38:39;;;;;;;31.20;27.90;;;7.00;99.90;;;;;;5084429;28;20198;-74
2021/05/01 04:41:05;;;;;;;34.77;30.80;;;7.00;99.90;;;;;;5083209;28;20215;-76
2021/05/01 04:43:32;;;;;;;34.27;30.07;;;7.10;99.90;;;;;;5091221;28;20541;-74
2021/05/01 04:45:59;;;;;;;37.90;32.00;;;7.10;99.90;;;;;;5081786;28;20393;-79
2021/05/01 04:48:28;;;;;;;35.67;30.50;;;7.10;99.90;;;;;;5092201;28;20207;-77
2021/05/01 04:50:55;;;;;;;35.83;31.07;;;7.10;99.90;;;;;;5078252;28;20220;-76
2021/05/01 04:53:21;;;;;;;34.93;29.37;;;7.20;99.90;;;;;;5086966;28;20191;-78
2021/05/01 04:55:48;;;;;;;43.27;33.50;;;7.20;99.90;;;;;;5081794;28;20190;-74
2021/05/01 04:58:14;;;;;;;36.00;29.87;;;7.20;99.90;;;;;;5090485;28;20190;-74
2021/05/01 05:00:41;;;;;;;34.80;31.00;;;7.10;99.90;;;;;;5078738;28;20226;-76
2021/05/01 05:03:09;;;;;;;31.87;28.37;;;7.20;99.90;;;;;;5083682;28;20186;-77
2021/05/01 05:05:36;;;;;;;30.97;27.63;;;7.20;99.90;;;;;;5080180;28;20596;-75
2021/05/01 05:08:02;;;;;;;31.27;28.00;;;7.30;99.90;;;;;;5090424;28;20336;-75
2021/05/01 05:10:29;;;;;;;31.57;28.23;;;7.20;99.90;;;;;;5101977;28;20215;-76
2021/05/01 05:12:55;;;;;;;31.33;28.13;;;7.20;99.90;;;;;;5078507;28;20211;-77
2021/05/01 05:15:22;;;;;;;33.60;29.43;;;7.20;99.90;;;;;;5090046;28;20683;-77
2021/05/01 05:17:48;;;;;;;29.90;26.67;;;7.20;99.90;;;;;;5081641;28;20202;-77
2021/05/01 05:20:14;;;;;;;29.73;26.53;;;7.20;99.90;;;;;;5089703;28;20221;-77
2021/05/01 05:22:42;;;;;;;34.57;30.80;;;7.30;99.90;;;;;;5087363;28;20320;-77
2021/05/01 05:25:09;;;;;;;32.67;29.17;;;7.30;99.90;;;;;;5081204;28;20200;-77
2021/05/01 05:27:36;;;;;;;35.17;31.20;;;7.20;99.90;;;;;;5088142;28;20200;-75
2021/05/01 05:30:03;;;;;;;33.23;29.37;;;7.20;99.90;;;;;;5081278;28;20581;-75
2021/05/01 05:32:29;;;;;;;32.27;28.30;;;7.20;99.90;;;;;;5079407;28;20223;-76
2021/05/01 05:34:55;;;;;;;37.20;32.20;;;7.30;99.90;;;;;;5084190;28;20622;-75
2021/05/01 05:37:22;;;;;;;32.07;28.60;;;7.30;99.90;;;;;;5081464;28;20226;-75
2021/05/01 05:39:50;;;;;;;31.60;28.20;;;7.30;99.90;;;;;;5083156;28;20196;-77
2021/05/01 05:42:18;;;;;;;33.80;29.87;;;7.40;99.90;;;;;;5080332;28;20276;-77
2021/05/01 05:44:47;;;;;;;35.43;30.43;;;7.40;99.90;;;;;;5082807;28;20227;-77
2021/05/01 05:47:15;;;;;;;31.13;27.83;;;7.50;99.90;;;;;;5088232;28;20477;-77
2021/05/01 05:49:41;;;;;;;31.43;28.13;;;7.50;99.90;;;;;;5086017;28;20204;-77
2021/05/01 05:52:07;;;;;;;37.83;31.30;;;7.60;99.90;;;;;;5082807;28;20215;-77
2021/05/01 05:54:35;;;;;;;34.37;29.77;;;7.70;99.90;;;;;;5080393;28;20207;-77
2021/05/01 05:57:02;;;;;;;31.80;28.50;;;7.80;99.90;;;;;;5080293;28;20200;-77
2021/05/01 05:59:28;;;;;;;33.20;29.70;;;7.90;99.90;;;;;;5080256;28;20196;-75
2021/05/01 06:01:56;;;;;;;29.87;26.77;;;8.00;99.90;;;;;;5074186;28;20658;-77
2021/05/01 06:04:29;;;;;;;30.53;27.27;;;8.00;99.90;;;;;;5082585;28;20192;-77
2021/05/01 06:07:03;;;;;;;28.67;25.77;;;8.10;99.90;;;;;;5086315;28;20200;-77
2021/05/01 06:09:30;;;;;;;30.50;27.30;;;8.00;99.90;;;;;;5087294;28;20199;-77
2021/05/01 06:11:59;;;;;;;29.30;26.13;;;8.00;99.90;;;;;;5076625;28;20239;-77
2021/05/01 06:14:27;;;;;;;27.90;25.10;;;8.00;99.90;;;;;;5082867;28;20204;-77
2021/05/01 06:16:55;;;;;;;29.77;26.57;;;8.10;99.90;;;;;;5083494;28;20196;-78
2021/05/01 06:19:22;;;;;;;29.17;26.20;;;8.10;99.90;;;;;;5084638;28;20197;-77
2021/05/01 06:21:49;;;;;;;30.10;26.97;;;8.10;99.90;;;;;;5082015;28;20228;-77
2021/05/01 06:24:17;;;;;;;28.80;25.80;;;8.10;99.90;;;;;;5079029;28;20209;-78
2021/05/01 06:26:43;;;;;;;26.33;23.63;;;8.20;99.90;;;;;;5082464;28;20205;-77
2021/05/01 06:29:10;;;;;;;26.90;24.00;;;8.20;99.90;;;;;;5084612;28;20212;-78
2021/05/01 06:31:39;;;;;;;25.17;22.67;;;8.30;99.90;;;;;;5100129;28;20685;-77
2021/05/01 06:34:06;;;;;;;25.13;22.53;;;8.30;99.90;;;;;;5080072;28;20587;-77
2021/05/01 06:36:33;;;;;;;25.40;22.83;;;8.30;99.90;;;;;;5086518;28;20276;-77
2021/05/01 06:39:03;;;;;;;22.70;20.57;;;8.20;99.90;;;;;;5083493;28;20198;-77
2021/05/01 06:41:43;;;;;;;22.03;19.87;;;8.30;99.90;;;;;;5086952;28;20267;-77
2021/05/01 06:44:16;;;;;;;21.47;19.30;;;8.30;99.90;;;;;;5083687;28;20201;-77
2021/05/01 06:46:48;;;;;;;21.30;19.20;;;8.30;99.90;;;;;;5082724;28;20196;-76
2021/05/01 06:49:28;;;;;;;23.20;20.90;;;8.30;99.90;;;;;;5085269;28;20197;-74
2021/05/01 06:51:55;;;;;;;23.13;20.80;;;8.30;99.90;;;;;;5094432;28;20222;-76
2021/05/01 06:54:23;;;;;;;25.83;23.03;;;8.30;99.90;;;;;;5091883;28;20201;-79
2021/05/01 06:56:50;;;;;;;22.43;20.27;;;8.20;99.90;;;;;;5094017;28;20201;-78
2021/05/01 06:59:18;;;;;;;22.63;20.23;;;8.20;99.90;;;;;;5091864;28;20196;-78
2021/05/01 07:01:46;;;;;;;21.90;19.80;;;8.20;99.90;;;;;;5083418;28;20704;-77
2021/05/01 07:04:14;;;;;;;23.67;21.17;;;8.30;99.90;;;;;;5089675;28;20554;-77
2021/05/01 07:06:42;;;;;;;22.90;20.53;;;8.20;99.90;;;;;;5084769;28;20745;-78
2021/05/01 07:09:09;;;;;;;22.83;20.53;;;8.20;99.90;;;;;;5085411;28;20204;-77
2021/05/01 07:11:35;;;;;;;21.67;19.67;;;8.30;99.90;;;;;;5079859;28;20224;-77
2021/05/01 07:14:03;;;;;;;21.00;19.00;;;8.30;99.90;;;;;;5086066;28;20207;-76
2021/05/01 07:16:29;;;;;;;21.43;19.30;;;8.30;99.90;;;;;;5084888;28;20205;-76
2021/05/01 07:18:56;;;;;;;21.27;19.20;;;8.30;99.90;;;;;;5089901;28;20539;-76
2021/05/01 07:21:23;;;;;;;23.50;21.17;;;8.40;99.90;;;;;;5080649;28;20280;-77
2021/05/01 07:23:49;;;;;;;22.40;20.20;;;8.30;99.90;;;;;;5088020;28;20733;-76
2021/05/01 07:26:19;;;;;;;21.90;19.77;;;8.40;99.90;;;;;;5083098;28;20194;-76
2021/05/01 07:28:49;;;;;;;21.27;19.17;;;8.40;99.90;;;;;;5083062;28;20205;-75
2021/05/01 07:31:19;;;;;;;20.97;18.90;;;8.50;99.90;;;;;;5084690;28;20233;-77
2021/05/01 07:33:47;;;;;;;22.97;20.40;;;8.50;99.90;;;;;;5078694;28;20590;-78
2021/05/01 07:36:20;;;;;;;20.63;18.63;;;8.40;99.90;;;;;;5088094;28;20196;-78
2021/05/01 07:38:47;;;;;;;21.03;19.00;;;8.50;99.90;;;;;;5089810;28;20203;-77
2021/05/01 07:41:15;;;;;;;23.80;21.40;;;8.60;99.90;;;;;;5080794;28;20207;-78
2021/05/01 07:43:48;;;;;;;22.37;20.07;;;8.50;99.90;;;;;;5085533;28;20685;-77
2021/05/01 07:46:15;;;;;;;22.67;20.47;;;8.50;99.90;;;;;;5082371;28;20201;-79
2021/05/01 07:48:42;;;;;;;22.93;20.40;;;8.70;99.90;;;;;;5092250;28;20201;-79
2021/05/01 07:51:09;;;;;;;23.97;21.57;;;8.70;99.90;;;;;;5091206;28;20218;-77
2021/05/01 07:53:36;;;;;;;21.93;19.63;;;8.70;99.90;;;;;;5078460;28;20198;-78
2021/05/01 07:56:03;;;;;;;21.13;19.13;;;8.80;99.90;;;;;;5085870;28;20263;-78
2021/05/01 07:58:29;;;;;;;21.40;19.40;;;8.80;99.90;;;;;;5080707;28;20194;-77
2021/05/01 08:00:55;;;;;;;21.70;19.60;;;8.90;99.90;;;;;;5081986;28;20230;-77
2021/05/01 08:03:22;;;;;;;20.23;18.37;;;8.90;99.90;;;;;;5081938;28;20201;-78
2021/05/01 08:05:49;;;;;;;22.33;20.13;;;9.00;99.90;;;;;;5089429;28;20286;-79
2021/05/01 08:08:15;;;;;;;22.70;20.50;;;9.00;99.90;;;;;;5085405;28;20204;-77
2021/05/01 08:10:44;;;;;;;23.47;21.17;;;8.90;99.90;;;;;;5092585;28;20217;-78
2021/05/01 08:13:11;;;;;;;22.20;20.13;;;8.90;99.90;;;;;;5082981;28;20599;-79
2021/05/01 08:15:38;;;;;;;21.23;19.23;;;8.80;99.90;;;;;;5097291;28;20577;-78
2021/05/01 08:18:06;;;;;;;24.73;22.13;;;8.90;99.90;;;;;;5080331;28;20247;-77
2021/05/01 08:20:32;;;;;;;24.97;22.30;;;8.90;99.90;;;;;;5082801;28;20217;-78
2021/05/01 08:23:00;;;;;;;24.10;21.73;;;8.90;99.90;;;;;;5086733;28;20702;-78
2021/05/01 08:25:26;;;;;;;24.00;21.63;;;8.90;99.90;;;;;;5092580;28;20478;-77
2021/05/01 08:27:54;;;;;;;26.43;23.53;;;8.90;99.90;;;;;;5090913;28;20190;-78
2021/05/01 08:30:21;;;;;;;28.10;25.07;;;8.80;99.90;;;;;;5082465;28;20271;-78
2021/05/01 08:32:48;;;;;;;27.50;24.37;;;8.80;99.90;;;;;;5093885;28;20224;-78
2021/05/01 08:35:16;;;;;;;24.93;22.30;;;8.80;99.90;;;;;;5081174;28;20565;-79
2021/05/01 08:37:43;;;;;;;27.43;24.73;;;8.80;99.90;;;;;;5086278;28;20225;-79
2021/05/01 08:40:12;;;;;;;22.73;20.43;;;9.00;99.90;;;;;;5085541;28;20246;-77
2021/05/01 08:42:42;;;;;;;22.13;19.90;;;9.10;99.90;;;;;;5086339;28;20194;-78
2021/05/01 08:45:12;;;;;;;22.20;20.03;;;9.30;99.90;;;;;;5080334;28;20186;-78
2021/05/01 08:47:43;;;;;;;25.90;23.20;;;9.30;99.90;;;;;;5087995;28;20655;-78
2021/05/01 08:50:41;;;;;;;24.83;22.23;;;9.30;99.90;;;;;;5088397;28;20687;-78
2021/05/01 08:53:08;;;;;;;21.80;19.50;;;9.30;99.90;;;;;;5086267;28;20221;-78
2021/05/01 08:55:38;;;;;;;20.97;18.77;;;9.40;99.90;;;;;;5087055;28;20715;-78
2021/05/01 08:58:06;;;;;;;22.40;20.07;;;9.50;99.90;;;;;;5088474;28;20194;-78
2021/05/01 09:00:34;;;;;;;23.17;20.77;;;9.60;99.90;;;;;;5112039;22;20196;-76
2021/05/01 09:03:05;;;;;;;20.83;18.63;;;9.90;99.90;;;;;;5073716;28;20182;-77
2021/05/01 09:05:33;;;;;;;21.03;16.80;;;10.00;99.90;;;;;;5074141;28;20190;-77
2021/05/01 09:08:01;;;;;;;18.07;15.23;;;10.00;99.90;;;;;;5073752;28;20201;-77
2021/05/01 09:10:38;;;;;;;18.03;15.73;;;10.00;99.90;;;;;;5055746;28;20236;-77
2021/05/01 09:13:13;;;;;;;19.47;15.83;;;9.90;99.90;;;;;;5071483;28;20214;-77
2021/05/01 09:15:42;;;;;;;20.77;16.93;;;9.80;99.90;;;;;;5070576;28;20693;-76
2021/05/01 09:18:09;;;;;;;20.33;17.60;;;9.60;99.90;;;;;;5074022;28;20201;-76
2021/05/01 09:20:35;;;;;;;19.40;17.40;;;9.60;99.90;;;;;;5066735;28;20203;-78
2021/05/01 09:23:05;;;;;;;19.77;17.67;;;9.50;99.90;;;;;;5046082;28;20209;-78
2021/05/01 09:25:33;;;;;;;18.70;16.80;;;9.40;99.90;;;;;;5053639;28;20202;-78
2021/05/01 09:28:01;;;;;;;24.30;19.67;;;9.50;99.90;;;;;;5072793;28;20213;-78
2021/05/01 09:30:28;;;;;;;21.37;19.27;;;9.40;99.90;;;;;;5056845;28;20203;-80
2021/05/01 09:33:24;;;;;;;21.73;19.53;;;9.40;99.90;;;;;;5056950;28;20601;-79
2021/05/01 09:35:55;;;;;;;21.30;19.07;;;9.50;99.90;;;;;;5053691;28;20468;-79
2021/05/01 09:38:22;;;;;;;21.70;19.40;;;9.70;99.90;;;;;;5070936;28;20656;-79
2021/05/01 09:40:49;;;;;;;22.20;19.80;;;9.90;99.90;;;;;;5067607;28;20225;-79
2021/05/01 09:43:16;;;;;;;22.30;19.37;;;9.90;99.90;;;;;;5057170;28;20206;-79
2021/05/01 09:45:43;;;;;;;20.67;18.63;;;10.00;99.90;;;;;;5066749;28;20199;-79
2021/05/01 09:48:15;;;;;;;22.57;20.17;;;10.00;99.90;;;;;;5048451;28;20206;-81
2021/05/01 09:50:42;;;;;;;25.37;20.33;;;10.00;99.90;;;;;;5062310;28;20215;-78
2021/05/01 09:53:12;;;;;;;24.17;21.60;;;10.00;99.90;;;;;;5075090;28;20219;-79
2021/05/01 09:55:50;;;;;;;22.20;19.90;;;10.10;99.90;;;;;;5054895;28;20206;-80
2021/05/01 09:58:20;;;;;;;23.07;20.67;;;10.20;99.90;;;;;;5057664;28;20214;-79
2021/05/01 10:00:49;;;;;;;18.83;15.67;;;10.40;99.90;;;;;;5054218;28;20231;-79
2021/05/01 10:03:24;;;;;;;20.07;17.97;;;10.60;99.90;;;;;;5069232;28;20205;-78
2021/05/01 10:05:53;;;;;;;23.47;20.77;;;10.70;99.90;;;;;;5054368;28;20198;-77
2021/05/01 10:08:21;;;;;;;21.40;18.93;;;10.60;99.90;;;;;;5070015;28;20544;-78
2021/05/01 10:10:49;;;;;;;18.47;16.27;;;10.60;99.90;;;;;;5052836;28;20419;-78
2021/05/01 10:13:16;;;;;;;16.60;13.77;;;10.70;99.90;;;;;;5054253;28;20214;-77
2021/05/01 10:15:43;;;;;;;23.53;17.47;;;10.70;99.90;;;;;;5051817;28;20210;-77
2021/05/01 10:18:12;;;;;;;18.63;14.83;;;10.70;99.90;;;;;;5053866;28;20210;-77
2021/05/01 10:20:46;;;;;;;20.93;16.73;;;10.60;99.90;;;;;;5055241;28;20218;-77
2021/05/01 10:23:14;;;;;;;19.93;15.97;;;10.50;99.90;;;;;;5055547;28;20312;-77
2021/05/01 10:25:41;;;;;;;18.77;15.87;;;10.40;99.90;;;;;;5073388;28;20195;-77
2021/05/01 10:28:12;;;;;;;19.17;16.33;;;10.40;99.90;;;;;;5055495;28;20603;-77
2021/05/01 10:30:41;;;;;;;20.80;17.17;;;10.30;99.90;;;;;;5072991;28;20225;-77
2021/05/01 10:33:23;;;;;;;16.90;14.50;;;10.20;99.90;;;;;;5065696;28;20698;-77
2021/05/01 10:35:54;;;;;;;19.90;16.20;;;10.30;99.90;;;;;;5073359;28;20194;-77
2021/05/01 10:38:22;;;;;;;18.57;15.50;;;10.30;99.90;;;;;;5051705;28;20209;-77
2021/05/01 10:40:50;;;;;;;20.13;16.53;;;10.30;99.90;;;;;;5073524;28;20298;-78
2021/05/01 10:43:19;;;;;;;18.07;14.80;;;10.20;99.90;;;;;;5049347;28;20186;-79
2021/05/01 10:45:50;;;;;;;20.60;18.40;;;10.30;99.90;;;;;;5053669;28;20758;-78
2021/05/01 10:48:17;;;;;;;13.77;12.13;;;10.30;99.90;;;;;;5054101;28;20202;-79
2021/05/01 10:50:44;;;;;;;15.77;13.17;;;10.40;99.90;;;;;;5054805;28;20245;-78
2021/05/01 10:53:19;;;;;;;19.77;16.47;;;10.40;99.90;;;;;;5055072;28;20287;-77
2021/05/01 10:55:49;;;;;;;18.17;15.17;;;10.20;99.90;;;;;;5042676;28;20671;-78
2021/05/01 10:58:35;;;;;;;19.77;17.77;;;10.20;99.90;;;;;;5066491;28;20519;-78
2021/05/01 11:01:02;;;;;;;21.97;15.07;;;10.30;99.90;;;;;;5051800;28;20236;-78
2021/05/01 11:03:29;;;;;;;15.23;13.63;;;10.40;99.90;;;;;;5049759;28;20252;-78
2021/05/01 11:05:59;;;;;;;17.27;13.97;;;10.40;99.90;;;;;;5070637;28;20293;-79
2021/05/01 11:08:43;;;;;;;15.53;12.20;;;10.50;99.90;;;;;;5065097;28;20203;-79
2021/05/01 11:11:13;;;;;;;16.90;13.03;;;10.70;99.90;;;;;;5067943;28;20218;-79
2021/05/01 11:13:41;;;;;;;17.40;14.43;;;10.70;99.90;;;;;;5069719;28;20202;-79
2021/05/01 11:16:09;;;;;;;17.50;13.50;;;10.70;99.90;;;;;;5054017;28;20567;-79
2021/05/01 11:18:38;;;;;;;14.77;13.03;;;10.70;99.90;;;;;;5053388;28;20222;-78
2021/05/01 11:21:07;;;;;;;15.70;13.43;;;10.80;99.90;;;;;;5050478;28;20262;-78
2021/05/01 11:23:35;;;;;;;15.87;13.67;;;10.90;99.90;;;;;;5069563;28;20199;-78
2021/05/01 11:26:05;;;;;;;17.70;14.17;;;11.00;99.90;;;;;;5071126;28;20687;-78
2021/05/01 11:28:34;;;;;;;18.57;16.67;;;11.10;99.90;;;;;;5052724;28;20202;-79
2021/05/01 11:31:00;;;;;;;18.83;17.00;;;11.10;99.90;;;;;;5068916;28;20215;-79
2021/05/01 11:33:27;;;;;;;17.87;16.17;;;11.10;99.90;;;;;;5053081;28;20214;-79
2021/05/01 11:35:54;;;;;;;19.50;17.60;;;11.20;99.90;;;;;;5070882;28;20249;-79
2021/05/01 11:38:25;;;;;;;20.03;18.03;;;11.10;99.90;;;;;;5071768;28;20195;-79
2021/05/01 11:40:55;;;;;;;21.47;19.17;;;11.20;99.90;;;;;;5069323;28;20215;-78
2021/05/01 11:43:27;;;;;;;20.60;18.60;;;11.20;99.90;;;;;;5066018;28;20195;-79
2021/05/01 11:46:10;;;;;;;20.70;18.70;;;11.30;99.90;;;;;;5070524;28;20202;-79
2021/05/01 11:48:43;;;;;;;22.20;20.00;;;11.30;99.90;;;;;;5043817;28;20215;-81
2021/05/01 11:51:15;;;;;;;21.10;19.03;;;11.00;99.90;;;;;;5064388;28;20215;-79
2021/05/01 11:53:44;;;;;;;19.30;17.50;;;11.00;99.90;;;;;;5046731;28;20207;-78
2021/05/01 11:56:24;;;;;;;18.50;16.70;;;11.10;99.90;;;;;;5048714;28;20194;-78
2021/05/01 11:58:51;;;;;;;17.40;15.73;;;11.20;99.90;;;;;;5065438;28;20274;-79
2021/05/01 12:01:20;;;;;;;18.67;16.87;;;11.30;99.90;;;;;;5070399;28;20237;-78
2021/05/01 12:03:57;;;;;;;23.03;20.73;;;11.40;99.90;;;;;;5064385;28;20195;-78
2021/05/01 12:06:33;;;;;;;21.57;19.37;;;11.30;99.90;;;;;;5047594;28;20660;-78
2021/05/01 12:09:05;;;;;;;21.13;19.03;;;11.40;99.90;;;;;;5063648;28;20199;-78
2021/05/01 12:11:34;;;;;;;20.33;18.33;;;11.40;99.90;;;;;;5065431;28;20216;-78
2021/05/01 12:14:00;;;;;;;23.33;20.40;;;11.40;99.90;;;;;;5063150;28;20204;-78
2021/05/01 12:16:28;;;;;;;20.60;18.60;;;11.40;99.90;;;;;;5066384;28;20202;-78
2021/05/01 12:18:55;;;;;;;19.60;17.67;;;11.40;99.90;;;;;;5041236;28;20201;-78
2021/05/01 12:21:23;;;;;;;20.80;18.67;;;11.50;99.90;;;;;;5059753;28;20806;-77
2021/05/01 12:23:52;;;;;;;19.93;18.00;;;11.50;99.90;;;;;;5044364;28;20576;-78
2021/05/01 12:26:37;;;;;;;22.43;18.93;;;11.60;99.90;;;;;;5037782;28;20205;-78
2021/05/01 12:29:26;;;;;;;22.60;20.07;;;11.40;99.90;;;;;;5067541;28;20257;-78
2021/05/01 12:31:55;;;;;;;21.00;18.80;;;11.30;99.90;;;;;;5073988;28;20298;-78
2021/05/01 12:34:43;;;;;;;23.67;21.03;;;11.20;99.90;;;;;;5049384;28;20200;-78
2021/05/01 12:37:11;;;;;;;20.57;18.40;;;11.20;99.90;;;;;;5055963;28;20245;-78
2021/05/01 12:39:38;;;;;;;19.87;17.87;;;11.30;99.90;;;;;;5063687;28;20196;-78
2021/05/01 12:42:18;;;;;;;20.03;18.00;;;11.40;99.90;;;;;;5066421;28;20212;-78